Time;durP1;ratioP1;P1;durP2;ratioP2;P2;SDS_P1;SDS_P2;PMS_P1;PMS_P2;Temp;Humidity;BMP_temperature;BMP_pressure;BME280_temperature;BME280_humidity;BME280_pressure;Samples;Min_cycle;Max_cycle;Signal;HPM_P1;HPM_P2
2023/04/27 00:01:37;;;;;;;7.53;4.57;;;4.10;99.90;;;;;;6060180;23;101469;-80
2023/04/27 00:04:05;;;;;;;9.48;4.60;;;4.10;99.90;;;;;;6060854;23;98528;-80
2023/04/27 00:06:33;;;;;;;7.43;4.22;;;4.10;99.90;;;;;;6084621;23;98551;-80
2023/04/27 00:09:00;;;;;;;6.03;5.15;;;4.00;99.90;;;;;;6084336;23;99558;-80
2023/04/27 00:11:27;;;;;;;5.10;3.88;;;4.00;99.90;;;;;;6060277;23;101643;-80
2023/04/27 00:13:54;;;;;;;8.00;4.43;;;4.00;99.90;;;;;;6060385;23;98552;-80
2023/04/27 00:16:22;;;;;;;5.03;3.83;;;3.90;99.90;;;;;;6084442;23;99532;-80
2023/04/27 00:18:49;;;;;;;5.43;3.83;;;3.90;99.90;;;;;;6059671;23;102566;-80
2023/04/27 00:21:15;;;;;;;5.20;3.78;;;3.90;99.90;;;;;;6061330;23;99558;-80
2023/04/27 00:23:43;;;;;;;6.50;3.85;;;3.80;99.90;;;;;;6062200;23;98386;-80
2023/04/27 00:26:10;;;;;;;4.82;4.28;;;3.80;99.90;;;;;;6084899;23;98550;-80
2023/04/27 00:28:38;;;;;;;6.57;4.60;;;3.80;99.90;;;;;;6035589;23;100425;-80
2023/04/27 00:31:05;;;;;;;4.95;3.60;;;3.70;99.90;;;;;;6059809;23;101884;-80
2023/04/27 00:33:32;;;;;;;4.38;3.97;;;3.70;99.90;;;;;;6059988;23;98466;-80
2023/04/27 00:36:02;;;;;;;8.90;4.30;;;3.70;99.90;;;;;;6062370;23;97753;-80
2023/04/27 00:38:30;;;;;;;9.27;4.22;;;3.70;99.90;;;;;;6061597;23;99182;-80
2023/04/27 00:41:07;;;;;;;5.53;4.47;;;3.70;99.90;;;;;;6059679;23;101475;-80
2023/04/27 00:43:45;;;;;;;6.50;3.95;;;3.70;99.90;;;;;;6060025;23;99720;-80
2023/04/27 00:46:12;;;;;;;6.22;4.43;;;3.70;99.90;;;;;;6060285;23;98688;-80
2023/04/27 00:48:40;;;;;;;6.95;4.50;;;3.60;99.90;;;;;;6035287;23;102075;-80
2023/04/27 00:51:07;;;;;;;5.60;4.25;;;3.60;99.90;;;;;;6059422;23;101874;-80
2023/04/27 00:53:35;;;;;;;7.97;4.53;;;3.60;99.90;;;;;;6059926;23;98510;-80
2023/04/27 00:56:03;;;;;;;8.10;4.43;;;3.60;99.90;;;;;;6059979;23;98515;-80
2023/04/27 00:58:30;;;;;;;5.68;3.83;;;3.60;99.90;;;;;;6059565;23;99280;-80
2023/04/27 01:00:59;;;;;;;8.77;4.63;;;3.70;99.90;;;;;;6061400;23;101526;-80
2023/04/27 01:03:26;;;;;;;7.38;4.85;;;3.70;99.90;;;;;;6037150;23;99002;-80
2023/04/27 01:05:53;;;;;;;7.40;4.53;;;3.80;99.90;;;;;;6061472;23;98501;-80
2023/04/27 01:08:20;;;;;;;6.07;4.97;;;3.80;99.90;;;;;;6062063;23;100081;-81
2023/04/27 01:10:48;;;;;;;6.43;4.60;;;3.90;99.90;;;;;;6060976;23;102316;-81
2023/04/27 01:13:15;;;;;;;6.55;4.05;;;4.00;99.90;;;;;;6061437;23;98577;-80
2023/04/27 01:15:42;;;;;;;11.63;5.03;;;4.10;99.90;;;;;;6062706;23;98572;-80
2023/04/27 01:18:09;;;;;;;7.15;4.43;;;4.20;99.90;;;;;;6085554;23;101827;-80
2023/04/27 01:20:37;;;;;;;6.85;4.85;;;4.30;99.90;;;;;;6060960;23;101542;-81
2023/04/27 01:23:04;;;;;;;7.97;4.30;;;4.40;99.90;;;;;;6086107;23;98518;-81
2023/04/27 01:25:31;;;;;;;4.90;3.63;;;4.40;99.90;;;;;;6061586;23;97847;-80
2023/04/27 01:28:01;;;;;;;6.60;3.58;;;4.50;99.90;;;;;;6060800;23;101512;-80
2023/04/27 01:30:29;;;;;;;5.35;4.20;;;4.60;99.90;;;;;;6060676;23;99067;-81
2023/04/27 01:32:57;;;;;;;5.50;4.38;;;4.70;99.90;;;;;;6060860;23;99306;-81
2023/04/27 01:35:24;;;;;;;8.75;4.70;;;4.70;99.90;;;;;;6060959;23;98593;-81
2023/04/27 01:37:55;;;;;;;6.00;4.75;;;4.80;99.90;;;;;;6060774;23;101797;-81
2023/04/27 01:40:22;;;;;;;7.75;4.35;;;4.80;99.90;;;;;;6061293;23;99098;-81
2023/04/27 01:42:49;;;;;;;5.22;4.50;;;4.90;99.90;;;;;;6063114;23;98369;-81
2023/04/27 01:45:16;;;;;;;6.75;4.20;;;4.90;99.90;;;;;;6061358;23;98572;-81
2023/04/27 01:47:43;;;;;;;7.28;4.68;;;4.90;99.90;;;;;;6060511;23;101811;-81
2023/04/27 01:50:10;;;;;;;6.50;4.45;;;5.00;99.90;;;;;;6061428;23;101701;-81
2023/04/27 01:52:38;;;;;;;4.80;4.05;;;5.00;99.90;;;;;;6060837;23;98506;-81
2023/04/27 01:55:05;;;;;;;6.43;4.88;;;5.00;99.90;;;;;;6061200;23;98574;-81
2023/04/27 01:57:32;;;;;;;7.60;4.53;;;5.00;99.90;;;;;;6060068;23;103111;-81
2023/04/27 02:00:00;;;;;;;15.85;5.00;;;5.00;99.90;;;;;;6060605;23;102491;-81
2023/04/27 02:02:27;;;;;;;6.25;4.25;;;5.00;99.90;;;;;;6036849;23;98609;-80
2023/04/27 02:04:54;;;;;;;7.85;4.55;;;4.90;99.90;;;;;;6037050;23;98559;-81
2023/04/27 02:07:21;;;;;;;7.15;4.53;;;4.80;99.90;;;;;;6060748;23;105878;-81
2023/04/27 02:09:48;;;;;;;8.77;4.43;;;4.80;99.90;;;;;;6062255;23;98914;-81
2023/04/27 02:12:15;;;;;;;6.15;4.20;;;4.70;99.90;;;;;;6036668;23;98526;-81
2023/04/27 02:14:42;;;;;;;7.22;4.95;;;4.60;99.90;;;;;;6061494;23;98377;-81
2023/04/27 02:17:09;;;;;;;8.50;4.45;;;4.50;99.90;;;;;;6060690;23;101968;-80
2023/04/27 02:19:36;;;;;;;8.88;4.55;;;4.50;99.90;;;;;;6060434;23;101839;-81
2023/04/27 02:22:04;;;;;;;6.57;4.50;;;4.40;99.90;;;;;;6037156;23;99796;-81
2023/04/27 02:24:31;;;;;;;5.93;4.55;;;4.30;99.90;;;;;;6061084;23;98580;-80
2023/04/27 02:26:59;;;;;;;6.65;4.65;;;4.20;99.90;;;;;;6036645;23;102264;-81
2023/04/27 02:29:30;;;;;;;11.77;6.95;;;4.10;99.90;;;;;;6060726;23;102184;-80
2023/04/27 02:31:57;;;;;;;15.05;11.00;;;4.10;99.90;;;;;;6061678;23;98521;-81
2023/04/27 02:34:24;;;;;;;12.88;5.50;;;4.00;99.90;;;;;;6060385;23;98523;-81
2023/04/27 02:36:52;;;;;;;7.15;4.97;;;3.90;99.90;;;;;;6060294;23;101731;-81
2023/04/27 02:39:18;;;;;;;8.65;4.60;;;3.90;99.90;;;;;;6061084;23;101706;-80
2023/04/27 02:41:45;;;;;;;10.27;4.63;;;3.80;99.90;;;;;;6036791;23;99096;-80
2023/04/27 02:44:14;;;;;;;7.63;5.10;;;3.80;99.90;;;;;;6062770;23;98406;-81
2023/04/27 02:46:41;;;;;;;8.27;5.03;;;3.70;99.90;;;;;;6035790;23;102923;-80
2023/04/27 02:49:08;;;;;;;8.15;4.25;;;3.70;99.90;;;;;;6060776;23;102135;-81
2023/04/27 02:51:35;;;;;;;5.50;4.15;;;3.70;99.90;;;;;;6060574;23;98592;-80
2023/04/27 02:54:02;;;;;;;6.95;4.70;;;3.60;99.90;;;;;;6061165;23;98520;-81
2023/04/27 02:56:29;;;;;;;7.78;5.35;;;3.60;99.90;;;;;;6062295;23;99164;-81
2023/04/27 02:58:56;;;;;;;6.93;4.80;;;3.60;99.90;;;;;;6062211;23;98972;-80
2023/04/27 03:01:23;;;;;;;5.95;4.10;;;3.50;99.90;;;;;;6036978;23;98463;-80
2023/04/27 03:03:50;;;;;;;7.05;4.78;;;3.50;99.90;;;;;;6037069;23;97844;-80
2023/04/27 03:06:17;;;;;;;7.05;4.88;;;3.50;99.90;;;;;;6060479;23;102026;-80
2023/04/27 03:08:44;;;;;;;7.65;5.03;;;3.40;99.90;;;;;;6060355;23;101514;-80
2023/04/27 03:11:11;;;;;;;7.88;5.47;;;3.40;99.90;;;;;;6085209;23;99200;-81
2023/04/27 03:13:41;;;;;;;9.07;4.75;;;3.30;99.90;;;;;;6062415;23;98510;-81
2023/04/27 03:16:11;;;;;;;9.13;4.80;;;3.30;99.90;;;;;;6060163;23;101896;-80
2023/04/27 03:18:38;;;;;;;6.63;4.55;;;3.30;99.90;;;;;;6061850;23;99013;-80
2023/04/27 03:21:10;;;;;;;7.95;5.40;;;3.30;99.90;;;;;;6060937;23;98522;-81
2023/04/27 03:23:37;;;;;;;6.38;5.30;;;3.20;99.90;;;;;;6060428;23;98502;-80
2023/04/27 03:26:09;;;;;;;7.43;4.85;;;3.20;99.90;;;;;;6060535;23;101851;-80
2023/04/27 03:28:37;;;;;;;7.00;4.90;;;3.20;99.90;;;;;;6061134;23;99179;-81
2023/04/27 03:31:08;;;;;;;11.05;5.18;;;3.20;99.90;;;;;;6060252;23;101803;-80
2023/04/27 03:33:36;;;;;;;7.70;4.90;;;3.20;99.90;;;;;;6060573;23;98641;-80
2023/04/27 03:36:05;;;;;;;6.78;4.80;;;3.10;99.90;;;;;;6059952;23;102554;-80
2023/04/27 03:38:32;;;;;;;6.05;4.55;;;3.10;99.90;;;;;;6084829;23;99641;-80
2023/04/27 03:41:00;;;;;;;6.78;4.72;;;3.10;99.90;;;;;;6060660;23;98471;-80
2023/04/27 03:43:27;;;;;;;6.47;5.03;;;3.00;99.90;;;;;;6060728;23;98609;-80
2023/04/27 03:45:54;;;;;;;7.38;4.88;;;3.00;99.90;;;;;;6059931;23;102196;-80
2023/04/27 03:48:21;;;;;;;8.85;4.95;;;3.00;99.90;;;;;;6060243;23;101990;-80
2023/04/27 03:50:51;;;;;;;10.98;5.38;;;3.00;99.90;;;;;;6060004;23;98532;-80
2023/04/27 03:53:19;;;;;;;7.53;4.95;;;3.00;99.90;;;;;;6061433;23;97724;-80
2023/04/27 03:55:47;;;;;;;10.50;5.32;;;2.90;99.90;;;;;;6059545;23;100225;-80
2023/04/27 03:58:16;;;;;;;9.50;5.13;;;2.90;99.90;;;;;;6059949;23;100075;-80
2023/04/27 04:01:01;;;;;;;10.25;5.28;;;2.90;99.90;;;;;;6059995;23;99194;-80
2023/04/27 04:03:28;;;;;;;8.55;5.47;;;2.80;99.90;;;;;;6060642;23;98543;-80
2023/04/27 04:05:55;;;;;;;7.47;5.03;;;2.80;99.90;;;;;;6059944;23;101620;-80
2023/04/27 04:08:22;;;;;;;7.20;5.95;;;2.80;99.90;;;;;;6059915;23;99879;-80
2023/04/27 04:10:49;;;;;;;7.13;5.00;;;2.80;99.90;;;;;;6060229;23;98430;-80
2023/04/27 04:13:16;;;;;;;10.13;5.60;;;2.80;99.90;;;;;;6060607;23;98525;-80
2023/04/27 04:15:43;;;;;;;8.27;5.57;;;2.80;99.90;;;;;;6059713;23;101846;-80
2023/04/27 04:18:11;;;;;;;10.23;5.65;;;2.80;99.90;;;;;;6060372;23;101731;-80
2023/04/27 04:20:38;;;;;;;7.75;5.43;;;2.80;99.90;;;;;;6060503;23;98657;-80
2023/04/27 04:23:06;;;;;;;10.30;5.57;;;2.90;99.90;;;;;;6060091;23;98628;-80
2023/04/27 04:25:32;;;;;;;8.00;4.95;;;2.90;99.90;;;;;;6059470;23;103083;-80
2023/04/27 04:27:59;;;;;;;8.98;5.78;;;2.90;99.90;;;;;;6035462;23;102192;-80
2023/04/27 04:30:27;;;;;;;8.60;5.57;;;2.90;99.90;;;;;;6060338;23;98566;-80
2023/04/27 04:32:54;;;;;;;7.72;5.60;;;3.00;99.90;;;;;;6060488;23;98562;-80
2023/04/27 04:35:21;;;;;;;9.13;5.63;;;3.00;99.90;;;;;;6036742;23;102356;-80
2023/04/27 04:37:48;;;;;;;8.57;5.57;;;3.10;99.90;;;;;;6060935;23;101373;-80
2023/04/27 04:40:15;;;;;;;7.95;5.60;;;3.10;99.90;;;;;;6061839;23;98720;-80
2023/04/27 04:42:42;;;;;;;9.32;5.60;;;3.20;99.90;;;;;;6062243;23;98320;-80
2023/04/27 04:45:10;;;;;;;8.00;5.38;;;3.40;99.90;;;;;;6060815;23;101837;-80
2023/04/27 04:47:38;;;;;;;6.75;5.60;;;3.80;99.90;;;;;;6061308;23;101577;-80
2023/04/27 04:50:06;;;;;;;6.20;4.63;;;4.30;99.90;;;;;;6061094;23;99774;-80
2023/04/27 04:52:34;;;;;;;7.32;5.05;;;4.90;99.90;;;;;;6061362;23;98566;-80
2023/04/27 04:55:01;;;;;;;5.97;4.80;;;5.50;99.90;;;;;;6062523;23;99511;-80
2023/04/27 04:57:29;;;;;;;8.50;4.85;;;6.00;99.90;;;;;;6061041;23;101817;-80
2023/04/27 04:59:57;;;;;;;5.57;4.25;;;6.40;99.90;;;;;;6085964;23;98524;-80
2023/04/27 05:02:24;;;;;;;6.82;4.65;;;6.70;99.90;;;;;;6037413;23;99024;-81
2023/04/27 05:04:51;;;;;;;6.20;4.60;;;7.10;99.90;;;;;;6061064;23;99260;-81
2023/04/27 05:07:18;;;;;;;6.90;5.43;;;7.30;99.90;;;;;;6061172;23;111393;-81
2023/04/27 05:09:49;;;;;;;8.82;5.20;;;7.40;99.90;;;;;;6085275;23;98528;-81
2023/04/27 05:12:16;;;;;;;6.40;5.20;;;7.40;99.90;;;;;;6061506;23;99300;-81
2023/04/27 05:14:43;;;;;;;6.95;5.10;;;7.40;99.90;;;;;;6085189;23;102958;-81
2023/04/27 05:17:11;;;;;;;6.97;5.38;;;7.50;99.90;;;;;;6060666;23;102458;-81
2023/04/27 05:19:38;;;;;;;7.28;4.95;;;7.60;99.90;;;;;;6061436;23;98633;-81
2023/04/27 05:22:05;;;;;;;7.57;4.82;;;7.80;99.90;;;;;;6061609;23;99159;-81
2023/04/27 05:24:32;;;;;;;9.68;5.97;;;7.90;99.90;;;;;;6085397;23;100156;-81
2023/04/27 05:26:59;;;;;;;6.05;4.70;;;8.10;99.90;;;;;;6036585;23;101491;-81
2023/04/27 05:29:28;;;;;;;7.20;5.40;;;8.40;99.90;;;;;;6037077;23;98530;-82
2023/04/27 05:31:55;;;;;;;6.47;5.35;;;9.00;99.90;;;;;;6037345;23;97864;-82
2023/04/27 05:34:22;;;;;;;5.22;4.45;;;9.60;99.90;;;;;;6085474;23;99364;-82
2023/04/27 05:36:48;;;;;;;8.45;5.03;;;10.30;99.90;;;;;;6085533;23;99324;-82
2023/04/27 05:39:16;;;;;;;6.50;5.25;;;10.80;99.90;;;;;;6060944;23;99304;-82
2023/04/27 05:41:42;;;;;;;10.35;5.50;;;11.40;99.90;;;;;;6061599;23;98547;-82
2023/04/27 05:44:09;;;;;;;6.13;5.07;;;11.90;99.80;;;;;;6085251;23;99600;-82
2023/04/27 05:46:36;;;;;;;7.30;5.53;;;12.10;99.10;;;;;;6060559;23;99079;-82
2023/04/27 05:49:04;;;;;;;5.43;4.60;;;12.30;98.50;;;;;;6061749;23;98673;-82
2023/04/27 05:51:32;;;;;;;6.47;5.30;;;12.60;98.10;;;;;;6061308;23;98607;-83
2023/04/27 05:54:00;;;;;;;6.03;5.30;;;12.80;97.40;;;;;;6062331;23;99558;-82
2023/04/27 05:56:27;;;;;;;5.57;5.05;;;12.90;97.00;;;;;;6061180;23;101219;-82
2023/04/27 05:58:54;;;;;;;5.97;5.38;;;12.70;96.90;;;;;;6037152;23;98503;-82
2023/04/27 06:01:22;;;;;;;6.25;5.40;;;12.60;97.10;;;;;;6062980;23;98497;-81
2023/04/27 06:03:49;;;;;;;5.30;4.75;;;12.40;97.30;;;;;;6036082;23;104904;-81
2023/04/27 06:06:16;;;;;;;9.05;5.18;;;12.60;97.50;;;;;;6060541;23;102621;-81
2023/04/27 06:08:43;;;;;;;5.75;4.43;;;13.10;97.20;;;;;;6061354;23;98507;-81
2023/04/27 06:11:10;;;;;;;6.13;4.22;;;13.80;96.50;;;;;;6085964;23;98996;-81
2023/04/27 06:13:37;;;;;;;4.63;4.15;;;14.30;95.90;;;;;;6062559;23;99307;-82
2023/04/27 06:16:04;;;;;;;5.97;4.72;;;14.90;94.80;;;;;;6085014;23;98881;-81
2023/04/27 06:18:31;;;;;;;6.55;4.55;;;15.40;94.00;;;;;;6037068;23;98505;-81
2023/04/27 06:21:01;;;;;;;6.03;5.00;;;15.40;93.00;;;;;;6086464;23;98484;-81
2023/04/27 06:23:28;;;;;;;5.03;4.53;;;15.30;92.90;;;;;;6061004;23;99423;-81
2023/04/27 06:25:55;;;;;;;5.88;5.25;;;14.80;93.60;;;;;;6060113;23;110990;-81
2023/04/27 06:28:22;;;;;;;5.80;4.45;;;14.70;94.10;;;;;;6084895;23;99203;-81
2023/04/27 06:30:49;;;;;;;6.43;5.10;;;14.90;94.10;;;;;;6061234;23;98555;-81
2023/04/27 06:33:16;;;;;;;5.60;4.68;;;15.40;93.70;;;;;;6060437;23;102212;-81
2023/04/27 06:35:44;;;;;;;5.95;4.35;;;15.70;92.80;;;;;;6060859;23;98927;-81
2023/04/27 06:38:13;;;;;;;5.20;4.05;;;15.50;92.60;;;;;;6062705;23;98938;-81
2023/04/27 06:40:40;;;;;;;4.68;4.20;;;15.30;92.90;;;;;;6063010;23;98412;-81
2023/04/27 06:43:14;;;;;;;8.07;4.70;;;15.20;93.20;;;;;;6084970;23;99138;-81
2023/04/27 06:45:41;;;;;;;7.45;4.60;;;15.20;93.00;;;;;;6085645;23;99091;-81
2023/04/27 06:48:11;;;;;;;5.53;4.15;;;14.80;93.60;;;;;;6085400;23;98594;-81
2023/04/27 06:50:38;;;;;;;4.85;4.28;;;14.60;94.00;;;;;;6062401;23;98388;-81
2023/04/27 06:53:05;;;;;;;4.43;4.07;;;14.40;94.30;;;;;;6061220;23;100068;-81
2023/04/27 06:55:32;;;;;;;6.30;4.15;;;14.40;94.30;;;;;;6060344;23;102370;-81
2023/04/27 06:57:59;;;;;;;4.57;4.18;;;14.40;94.40;;;;;;6036198;23;102117;-81
2023/04/27 07:00:26;;;;;;;5.05;3.80;;;14.40;94.40;;;;;;6060674;23;98519;-81
2023/04/27 07:03:25;;;;;;;3.75;3.38;;;14.50;94.50;;;;;;6062274;23;99295;-81
2023/04/27 07:05:52;;;;;;;5.10;3.85;;;14.60;93.90;;;;;;6036466;23;101592;-81
2023/04/27 07:08:19;;;;;;;5.53;3.40;;;14.40;94.50;;;;;;6062587;23;98468;-81
2023/04/27 07:10:46;;;;;;;4.78;3.28;;;14.50;94.40;;;;;;6036918;23;97787;-81
2023/04/27 07:13:13;;;;;;;4.93;3.78;;;14.60;94.00;;;;;;6061960;23;99260;-81
2023/04/27 07:15:40;;;;;;;5.55;3.13;;;14.80;94.00;;;;;;6085198;23;98955;-82
2023/04/27 07:18:07;;;;;;;3.38;3.08;;;15.30;93.40;;;;;;6061907;23;99281;-82
2023/04/27 07:20:37;;;;;;;4.72;3.80;;;15.90;92.80;;;;;;6060983;23;98668;-82
2023/04/27 07:23:04;;;;;;;3.58;3.03;;;16.60;92.10;;;;;;6062176;23;99654;-82
2023/04/27 07:25:50;;;;;;;4.53;3.50;;;17.30;91.40;;;;;;6084860;23;99044;-82
2023/04/27 07:28:17;;;;;;;5.32;3.33;;;18.10;89.10;;;;;;6060853;23;99027;-82
2023/04/27 07:30:44;;;;;;;3.88;2.80;;;18.30;88.40;;;;;;6085583;23;98541;-82
2023/04/27 07:33:12;;;;;;;2.45;2.20;;;18.70;86.90;;;;;;6084428;23;103912;-82
2023/04/27 07:35:38;;;;;;;2.95;2.50;;;19.00;84.80;;;;;;6062498;23;99002;-82
2023/04/27 07:38:07;;;;;;;2.67;2.20;;;19.00;82.20;;;;;;6062603;23;98469;-81
2023/04/27 07:40:34;;;;;;;4.57;2.60;;;19.10;81.20;;;;;;6060478;23;98563;-82
2023/04/27 07:43:01;;;;;;;3.35;2.20;;;19.10;80.60;;;;;;6061500;23;100051;-82
2023/04/27 07:45:32;;;;;;;3.72;2.78;;;19.00;80.00;;;;;;6084771;23;99681;-82
2023/04/27 07:48:00;;;;;;;3.90;2.85;;;18.90;79.10;;;;;;6085443;23;98581;-82
2023/04/27 07:50:28;;;;;;;3.70;2.72;;;19.00;79.20;;;;;;6062148;23;98549;-82
2023/04/27 07:52:56;;;;;;;3.85;3.03;;;19.20;78.90;;;;;;6060014;23;99270;-82
2023/04/27 07:55:24;;;;;;;2.92;2.70;;;19.30;78.20;;;;;;6059787;23;101524;-82
2023/04/27 07:57:55;;;;;;;3.58;2.80;;;19.80;77.70;;;;;;6062252;23;98473;-81
2023/04/27 08:00:24;;;;;;;3.25;2.72;;;20.30;75.00;;;;;;6085514;23;97816;-82
2023/04/27 08:02:54;;;;;;;3.13;2.63;;;20.70;73.70;;;;;;6059973;23;102236;-82
2023/04/27 08:05:22;;;;;;;3.47;2.70;;;21.50;72.00;;;;;;6060038;23;99106;-82
2023/04/27 08:07:52;;;;;;;4.15;2.88;;;22.10;70.20;;;;;;6036083;23;99282;-82
2023/04/27 08:10:19;;;;;;;3.85;2.65;;;22.60;67.50;;;;;;6061395;23;98450;-82
2023/04/27 08:12:46;;;;;;;5.22;2.70;;;23.20;65.50;;;;;;6063037;23;99217;-82
2023/04/27 08:15:13;;;;;;;3.38;2.40;;;23.80;62.20;;;;;;6036213;23;101743;-82
2023/04/27 08:17:40;;;;;;;4.05;2.40;;;24.30;61.10;;;;;;6086422;23;98547;-82
2023/04/27 08:20:12;;;;;;;2.72;2.53;;;24.80;59.10;;;;;;6061945;23;98481;-82
2023/04/27 08:22:40;;;;;;;4.15;2.92;;;25.10;56.80;;;;;;6084939;23;99188;-83
2023/04/27 08:25:08;;;;;;;3.22;2.92;;;25.20;54.00;;;;;;6063456;23;99039;-82
2023/04/27 08:27:39;;;;;;;2.80;2.60;;;25.10;51.90;;;;;;6036911;23;98462;-82
2023/04/27 08:30:06;;;;;;;4.40;2.63;;;25.40;51.50;;;;;;6061658;23;98472;-82
2023/04/27 08:32:33;;;;;;;3.35;2.70;;;25.40;51.80;;;;;;6062339;23;99897;-82
2023/04/27 08:35:00;;;;;;;4.15;2.58;;;25.60;50.90;;;;;;6061397;23;99608;-82
2023/04/27 08:37:27;;;;;;;3.53;2.70;;;25.70;49.20;;;;;;6063097;23;98459;-82
2023/04/27 08:39:54;;;;;;;4.22;2.67;;;25.80;47.90;;;;;;6061623;23;98537;-82
2023/04/27 08:42:21;;;;;;;4.13;3.05;;;25.60;47.90;;;;;;6060963;23;102168;-82
2023/04/27 08:44:48;;;;;;;2.83;2.50;;;25.40;47.50;;;;;;6061615;23;99270;-82
2023/04/27 08:47:15;;;;;;;2.75;2.40;;;25.10;48.10;;;;;;6063390;23;98403;-82
2023/04/27 08:49:42;;;;;;;3.42;2.53;;;24.70;47.70;;;;;;6063440;23;97737;-82
2023/04/27 08:52:13;;;;;;;2.53;2.17;;;23.90;47.20;;;;;;6084936;23;99349;-82
2023/04/27 08:54:40;;;;;;;4.10;2.50;;;23.50;48.40;;;;;;6061258;23;99071;-82
2023/04/27 08:57:12;;;;;;;3.35;2.63;;;22.90;49.10;;;;;;6060704;23;99319;-82
2023/04/27 08:59:40;;;;;;;2.67;2.47;;;22.30;49.70;;;;;;6061308;23;98460;-81
2023/04/27 09:02:18;;;;;;;3.63;2.60;;;21.50;50.70;;;;;;6062729;23;100189;-82
2023/04/27 09:04:46;;;;;;;3.88;2.45;;;21.10;52.10;;;;;;6036914;23;101535;-82
2023/04/27 09:07:14;;;;;;;4.38;2.83;;;20.30;52.40;;;;;;6063565;23;98368;-82
2023/04/27 09:09:42;;;;;;;2.85;2.63;;;19.80;52.90;;;;;;6062956;23;98467;-82
2023/04/27 09:12:21;;;;;;;3.00;2.53;;;19.10;53.70;;;;;;6060975;23;101859;-82
2023/04/27 09:15:04;;;;;;;4.38;2.75;;;18.70;55.10;;;;;;6085970;23;98905;-81
2023/04/27 09:17:32;;;;;;;3.22;3.00;;;18.30;56.40;;;;;;6063003;23;98494;-82
2023/04/27 09:20:12;;;;;;;3.15;2.60;;;17.70;56.50;;;;;;6063065;23;98458;-82
2023/04/27 09:22:46;;;;;;;4.68;2.88;;;17.40;57.20;;;;;;6062346;23;100020;-82
2023/04/27 09:25:27;;;;;;;3.67;2.72;;;17.30;59.00;;;;;;6062659;23;99801;-82
2023/04/27 09:27:56;;;;;;;3.13;2.92;;;17.10;56.90;;;;;;6063207;23;98443;-77
2023/04/27 09:30:25;;;;;;;3.97;3.13;;;17.00;56.30;;;;;;6063035;23;98541;-77
2023/04/27 09:33:02;;;;;;;4.00;2.97;;;17.00;57.10;;;;;;6062141;23;99348;-77
2023/04/27 09:35:32;;;;;;;6.47;3.35;;;17.10;56.90;;;;;;6062436;23;98978;-77
2023/04/27 09:37:59;;;;;;;4.97;3.00;;;16.90;57.40;;;;;;6063239;23;99102;-77
2023/04/27 09:40:30;;;;;;;6.10;4.13;;;16.80;57.10;;;;;;6061515;23;100194;-77
2023/04/27 09:43:00;;;;;;;5.90;3.83;;;16.90;57.60;;;;;;6062679;23;99671;-77
2023/04/27 09:45:28;;;;;;;3.97;3.10;;;16.90;57.90;;;;;;6061080;23;98519;-77
2023/04/27 09:47:55;;;;;;;5.30;3.63;;;16.80;57.80;;;;;;6060536;23;101530;-77
2023/04/27 09:50:22;;;;;;;3.67;3.30;;;17.00;58.70;;;;;;6061492;23;99123;-77
2023/04/27 09:52:49;;;;;;;6.07;3.60;;;17.10;58.00;;;;;;6036160;23;101778;-77
2023/04/27 09:55:45;;;;;;;6.45;3.40;;;17.20;58.40;;;;;;6061013;23;98995;-76
2023/04/27 09:58:41;;;;;;;4.78;3.50;;;17.40;58.70;;;;;;6057653;23;99912;-77
2023/04/27 10:01:25;;;;;;;6.70;3.90;;;17.30;59.20;;;;;;6063130;23;98477;-77
2023/04/27 10:04:16;;;;;;;;;;;17.40;58.00;;;;;;6062849;23;99332;-77
2023/04/27 10:07:05;;;;;;;8.48;4.15;;;17.50;59.30;;;;;;6062551;23;101227;-77
2023/04/27 10:09:46;;;;;;;6.80;4.25;;;17.80;59.30;;;;;;6061279;23;98440;-77
2023/04/27 10:12:18;;;;;;;4.93;3.90;;;17.90;57.30;;;;;;6062893;23;98460;-77
2023/04/27 10:14:56;;;;;;;6.05;5.07;;;18.00;56.60;;;;;;6060330;23;100943;-77
2023/04/27 10:17:31;;;;;;;4.53;3.70;;;18.20;57.20;;;;;;6062318;23;99616;-77
2023/04/27 10:20:03;;;;;;;4.75;3.53;;;18.20;56.80;;;;;;6037334;23;98586;-77
2023/04/27 10:22:44;;;;;;;4.35;3.55;;;18.30;57.90;;;;;;6037051;23;98576;-77
2023/04/27 10:25:25;;;;;;;5.93;3.67;;;18.40;58.10;;;;;;6036699;23;102038;-77
2023/04/27 10:28:00;;;;;;;6.35;4.07;;;18.50;57.30;;;;;;6036478;23;101486;-77
2023/04/27 10:30:32;;;;;;;6.53;3.67;;;18.60;57.40;;;;;;6063058;23;98358;-77
2023/04/27 10:33:06;;;;;;;5.35;3.70;;;18.70;57.00;;;;;;6061433;23;97710;-77
2023/04/27 10:35:39;;;;;;;4.45;3.97;;;18.80;56.30;;;;;;6062437;23;99487;-77
2023/04/27 10:38:07;;;;;;;4.40;4.00;;;18.90;54.50;;;;;;6036506;23;101752;-77
2023/04/27 10:40:36;;;;;;;4.32;3.92;;;19.20;56.40;;;;;;6060332;23;99216;-77
2023/04/27 10:43:14;;;;;;;4.53;4.13;;;19.40;56.50;;;;;;6061222;23;98858;-77
2023/04/27 10:45:42;;;;;;;5.20;3.72;;;19.60;54.70;;;;;;6084862;23;99180;-77
2023/04/27 10:48:14;;;;;;;4.25;3.95;;;19.50;55.00;;;;;;6062345;23;99011;-77
2023/04/27 10:50:43;;;;;;;6.55;4.10;;;19.70;55.70;;;;;;6062727;23;98553;-77
2023/04/27 10:53:10;;;;;;;4.53;4.13;;;19.70;54.40;;;;;;6060785;23;98488;-77
2023/04/27 10:55:37;;;;;;;7.47;4.40;;;19.70;52.90;;;;;;6060431;23;101801;-77
2023/04/27 10:58:04;;;;;;;5.13;3.60;;;19.60;53.20;;;;;;6061048;23;98283;-77
2023/04/27 11:00:42;;;;;;;5.47;4.00;;;19.50;54.20;;;;;;6061452;23;98546;-77
2023/04/27 11:03:10;;;;;;;6.57;4.07;;;19.50;54.90;;;;;;6063016;23;98902;-77
2023/04/27 11:05:37;;;;;;;4.90;4.40;;;19.60;54.40;;;;;;6059963;23;102682;-77
2023/04/27 11:08:06;;;;;;;4.40;3.92;;;19.70;55.80;;;;;;6060544;23;99793;-77
2023/04/27 11:10:34;;;;;;;4.47;4.05;;;19.80;55.40;;;;;;6060919;23;98572;-77
2023/04/27 11:13:13;;;;;;;4.32;3.60;;;19.80;54.30;;;;;;6060529;23;98530;-77
2023/04/27 11:16:00;;;;;;;5.03;3.88;;;19.90;54.00;;;;;;6059949;23;101691;-77
2023/04/27 11:18:30;;;;;;;4.40;3.83;;;19.90;54.20;;;;;;6060317;23;99031;-77
2023/04/27 11:21:08;;;;;;;5.20;4.35;;;19.70;54.70;;;;;;6062403;23;98440;-77
2023/04/27 11:23:37;;;;;;;5.80;4.45;;;19.80;53.90;;;;;;6063503;23;98193;-77
2023/04/27 11:26:17;;;;;;;4.88;3.72;;;19.60;54.20;;;;;;6084556;23;99288;-77
2023/04/27 11:29:08;;;;;;;4.50;4.10;;;19.60;53.10;;;;;;6061852;23;98768;-77
2023/04/27 11:31:46;;;;;;;7.00;4.53;;;19.60;54.00;;;;;;6062004;23;99728;-77
2023/04/27 11:34:22;;;;;;;5.72;4.10;;;19.70;53.50;;;;;;6060852;23;98588;-77
2023/04/27 11:36:58;;;;;;;5.28;4.25;;;19.70;53.30;;;;;;6060220;23;99200;-77
2023/04/27 11:39:40;;;;;;;5.65;3.90;;;19.80;53.40;;;;;;6039058;23;102430;-77
2023/04/27 11:42:17;;;;;;;5.40;4.38;;;19.70;53.90;;;;;;6060261;23;98585;-77
2023/04/27 11:44:54;;;;;;;4.40;4.00;;;19.90;53.50;;;;;;6060608;23;98616;-77
2023/04/27 11:47:22;;;;;;;4.65;4.25;;;19.90;53.10;;;;;;6061880;23;99258;-77
2023/04/27 11:49:54;;;;;;;5.65;4.22;;;19.80;53.90;;;;;;6085060;23;99009;-77
2023/04/27 11:52:31;;;;;;;4.75;4.18;;;19.80;53.80;;;;;;6083917;23;98600;-76
2023/04/27 11:55:00;;;;;;;5.55;4.18;;;20.00;53.40;;;;;;6060675;23;98488;-77
2023/04/27 11:57:29;;;;;;;4.55;4.15;;;19.90;53.90;;;;;;6059169;23;106338;-77
2023/04/27 12:00:00;;;;;;;4.68;4.20;;;20.00;51.50;;;;;;6059657;23;102239;-76
2023/04/27 12:02:29;;;;;;;5.95;4.50;;;19.90;52.50;;;;;;6060813;23;98445;-77
2023/04/27 12:04:58;;;;;;;4.60;4.20;;;19.90;52.30;;;;;;6059997;23;98529;-77
2023/04/27 12:07:26;;;;;;;5.25;4.00;;;20.00;51.90;;;;;;6060271;23;99477;-77
2023/04/27 12:09:53;;;;;;;4.32;3.78;;;20.00;50.50;;;;;;6059710;23;101611;-77
2023/04/27 12:12:23;;;;;;;5.70;4.38;;;20.00;51.40;;;;;;6060358;23;98497;-77
2023/04/27 12:14:50;;;;;;;5.38;4.10;;;20.00;51.60;;;;;;6060362;23;97915;-77
2023/04/27 12:17:18;;;;;;;5.32;3.88;;;20.10;52.60;;;;;;6061891;23;99366;-77
2023/04/27 12:19:45;;;;;;;4.72;4.20;;;20.10;52.10;;;;;;6061662;23;99052;-77
2023/04/27 12:22:12;;;;;;;6.57;4.70;;;20.20;51.10;;;;;;6059780;23;99270;-76
2023/04/27 12:24:39;;;;;;;5.35;4.75;;;20.30;51.70;;;;;;6062033;23;98481;-77
2023/04/27 12:27:07;;;;;;;4.75;4.30;;;20.40;51.70;;;;;;6061192;23;99154;-77
2023/04/27 12:29:34;;;;;;;6.05;4.90;;;20.30;51.90;;;;;;6059050;23;116811;-77
2023/04/27 12:32:01;;;;;;;4.03;3.50;;;20.40;52.50;;;;;;6059723;23;98564;-77
2023/04/27 12:34:28;;;;;;;5.93;4.10;;;20.40;52.30;;;;;;6060626;23;98563;-77
2023/04/27 12:36:55;;;;;;;4.93;4.40;;;20.30;50.80;;;;;;6059456;23;101797;-77
2023/04/27 12:39:25;;;;;;;4.25;3.92;;;20.20;50.90;;;;;;6061851;23;98890;-77
2023/04/27 12:41:52;;;;;;;5.93;4.13;;;20.00;50.50;;;;;;6084009;23;98565;-77
2023/04/27 12:44:20;;;;;;;5.40;4.38;;;19.70;51.40;;;;;;6061617;23;98527;-77
2023/04/27 12:46:47;;;;;;;4.57;4.00;;;19.70;51.50;;;;;;6059176;23;102638;-77
2023/04/27 12:49:15;;;;;;;5.45;3.95;;;19.80;51.10;;;;;;6060996;23;99737;-77
2023/04/27 12:51:42;;;;;;;4.43;3.45;;;19.90;51.20;;;;;;6059952;23;98580;-76
2023/04/27 12:54:11;;;;;;;4.10;3.70;;;19.80;51.00;;;;;;6060042;23;98587;-77
2023/04/27 12:56:38;;;;;;;4.47;3.95;;;19.70;51.30;;;;;;6062395;23;99308;-77
2023/04/27 12:59:05;;;;;;;5.05;3.60;;;19.60;51.90;;;;;;6062523;23;99019;-77